createdAt,value
2019-04-30T00:00:34.712Z,71.27
2019-04-30T00:05:30.935Z,85.87
2019-04-30T00:10:35.390Z,73.83
2019-04-30T00:15:25.746Z,87.57
2019-04-30T00:20:21.841Z,76.33
2019-04-30T00:25:19.730Z,76.67
2019-04-30T00:30:16.012Z,79.50
2019-04-30T00:35:16.283Z,70.67
2019-04-30T00:40:12.188Z,68.87
2019-04-30T00:45:10.004Z,67.00
2019-04-30T00:50:07.163Z,66.53
2019-04-30T00:55:09.056Z,68.80
2019-04-30T01:00:06.330Z,64.27
2019-04-30T01:05:13.092Z,60.20
2019-04-30T01:10:11.325Z,66.67
2019-04-30T01:15:11.114Z,78.53
2019-04-30T01:20:06.289Z,73.67
2019-04-30T01:25:12.030Z,84.07
2019-04-30T01:30:05.680Z,73.17
2019-04-30T01:35:01.707Z,68.20
2019-04-30T01:39:58.900Z,68.23
2019-04-30T01:44:55.567Z,63.60
2019-04-30T01:49:51.497Z,68.97
2019-04-30T01:54:49.060Z,76.97
2019-04-30T02:00:02.033Z,74.70
2019-04-30T02:04:59.189Z,82.20
2019-04-30T02:09:55.181Z,71.07
2019-04-30T02:14:51.825Z,71.40
2019-04-30T02:19:54.729Z,74.53
2019-04-30T02:24:45.799Z,74.50
2019-04-30T02:29:41.699Z,73.57
2019-04-30T02:34:41.153Z,72.97
2019-04-30T02:39:40.124Z,75.10
2019-04-30T02:44:36.216Z,68.93
2019-04-30T02:49:32.250Z,69.13
2019-04-30T02:54:29.838Z,81.20
2019-04-30T02:59:25.910Z,69.03
2019-04-30T03:04:21.911Z,66.03
2019-04-30T03:09:20.179Z,62.17
2019-04-30T03:14:15.684Z,68.83
2019-04-30T03:19:29.483Z,80.60
2019-04-30T03:24:25.772Z,67.33
2019-04-30T03:29:24.041Z,69.57
2019-04-30T03:34:25.240Z,72.13
2019-04-30T03:39:19.735Z,60.30
2019-04-30T03:44:21.669Z,67.63
2019-04-30T03:49:13.621Z,71.97
2019-04-30T03:54:10.261Z,66.33
2019-04-30T03:59:06.302Z,69.37
2019-04-30T04:04:20.904Z,65.40
2019-04-30T04:09:24.338Z,67.00
2019-04-30T04:14:20.351Z,72.50
2019-04-30T04:19:16.274Z,66.07
2019-04-30T04:24:12.405Z,65.70
2019-04-30T04:29:09.516Z,88.30
2019-04-30T04:34:06.246Z,73.80
2019-04-30T04:39:03.579Z,73.50
2019-04-30T04:44:00.610Z,78.83
2019-04-30T04:48:59.481Z,83.60
2019-04-30T04:53:54.381Z,79.20
2019-04-30T04:58:50.408Z,76.50
2019-04-30T05:03:48.830Z,70.13
2019-04-30T05:08:44.324Z,63.87
2019-04-30T05:13:40.249Z,74.27
2019-04-30T05:18:36.287Z,69.63
2019-04-30T05:23:32.205Z,64.97
2019-04-30T05:28:29.864Z,74.73
2019-04-30T05:33:25.965Z,64.57
2019-04-30T05:38:21.931Z,71.60
2019-04-30T05:48:08.918Z,66.73
2019-04-30T05:53:04.918Z,63.63
2019-04-30T05:58:01.459Z,71.10
2019-04-30T06:02:59.482Z,56.60
2019-04-30T06:07:55.569Z,43.03
2019-04-30T06:12:56.495Z,63.03
2019-04-30T06:18:00.303Z,61.73
2019-04-30T06:22:54.887Z,68.57
2019-04-30T06:27:51.120Z,53.37
2019-04-30T06:32:49.465Z,52.70
2019-04-30T06:37:45.407Z,66.67
2019-04-30T06:42:41.465Z,53.00
2019-04-30T06:47:38.910Z,51.60
2019-04-30T06:52:35.140Z,56.53
2019-04-30T06:57:31.069Z,48.20
2019-04-30T07:02:30.642Z,52.20
2019-04-30T07:07:36.286Z,51.10
2019-04-30T07:12:28.562Z,49.60
2019-04-30T07:17:24.304Z,54.27
2019-04-30T07:22:36.062Z,49.83
2019-04-30T07:27:23.728Z,51.83
2019-04-30T07:32:15.895Z,48.70
2019-04-30T07:37:20.501Z,42.53
2019-04-30T07:42:09.685Z,45.67
2019-04-30T07:47:05.645Z,43.33
2019-04-30T07:52:02.473Z,47.83
2019-04-30T07:57:00.529Z,49.57
2019-04-30T08:02:07.614Z,44.90
2019-04-30T08:06:56.765Z,46.20
2019-04-30T08:11:52.784Z,44.90
2019-04-30T08:16:50.976Z,46.90
2019-04-30T08:21:48.501Z,50.77
2019-04-30T08:26:44.565Z,48.40
2019-04-30T08:31:40.942Z,33.90
2019-04-30T08:36:38.658Z,44.23
2019-04-30T08:41:34.800Z,39.33
2019-04-30T08:46:30.733Z,39.97
2019-04-30T08:51:30.528Z,42.33
2019-04-30T08:56:24.596Z,40.87
2019-04-30T09:01:20.602Z,39.30
2019-04-30T09:06:19.562Z,34.80
2019-04-30T09:11:25.047Z,42.27
2019-04-30T09:16:13.514Z,39.00
2019-04-30T09:21:10.125Z,38.27
2019-04-30T09:26:06.024Z,38.57
2019-04-30T09:31:03.250Z,34.73
2019-04-30T09:35:59.608Z,34.10
2019-04-30T09:40:55.777Z,25.87
2019-04-30T09:45:51.728Z,37.60
2019-04-30T09:50:50.422Z,42.90
2019-04-30T09:55:46.631Z,36.53
2019-04-30T10:00:42.649Z,35.83
2019-04-30T10:05:39.106Z,40.30
2019-04-30T10:10:38.753Z,33.40
2019-04-30T10:15:36.750Z,39.30
2019-04-30T10:20:47.775Z,31.70
2019-04-30T10:25:43.793Z,36.07
2019-04-30T10:30:39.737Z,34.87
2019-04-30T10:35:35.691Z,31.60
2019-04-30T10:40:31.617Z,32.60
2019-04-30T10:45:28.817Z,30.83
2019-04-30T10:50:32.207Z,32.60
2019-04-30T10:55:28.717Z,28.53
2019-04-30T11:00:39.016Z,24.83
2019-04-30T11:05:35.315Z,22.67
2019-04-30T11:10:31.341Z,27.17
2019-04-30T11:15:28.840Z,24.40
2019-04-30T11:20:35.619Z,22.47
2019-04-30T11:25:32.501Z,28.40
2019-04-30T11:30:29.706Z,18.17
2019-04-30T11:35:26.255Z,20.80
2019-04-30T11:40:31.714Z,23.17
2019-04-30T11:45:26.514Z,24.90
2019-04-30T11:50:23.672Z,23.77
2019-04-30T11:55:19.895Z,32.00
2019-04-30T12:00:24.149Z,23.97
2019-04-30T12:05:20.922Z,31.93
2019-04-30T12:10:19.474Z,20.30
2019-04-30T12:15:15.701Z,24.37
2019-04-30T12:20:12.073Z,23.10
2019-04-30T12:25:10.055Z,23.93
2019-04-30T12:30:06.722Z,24.93
2019-04-30T12:35:05.106Z,28.60
2019-04-30T12:40:01.341Z,26.27
2019-04-30T12:44:57.272Z,23.57
2019-04-30T12:50:06.946Z,25.30
2019-04-30T12:55:15.197Z,17.23
2019-04-30T13:00:09.424Z,23.67
2019-04-30T13:05:05.894Z,26.40
2019-04-30T13:10:12.934Z,19.50
2019-04-30T13:15:12.367Z,13.43
2019-04-30T13:20:18.604Z,21.10
2019-04-30T13:25:14.616Z,24.47
2019-04-30T13:30:20.244Z,22.80
2019-04-30T13:35:19.007Z,16.40
2019-04-30T13:40:23.369Z,17.10
2019-04-30T13:45:20.889Z,26.60
2019-04-30T13:50:20.981Z,14.57
2019-04-30T13:55:19.081Z,17.60
2019-04-30T14:00:30.138Z,15.33
2019-04-30T14:05:29.637Z,21.10
2019-04-30T14:10:29.423Z,16.23
2019-04-30T14:15:38.560Z,19.03
2019-04-30T14:20:37.100Z,19.53
2019-04-30T14:25:36.976Z,12.90
2019-04-30T14:30:34.688Z,16.73
2019-04-30T14:35:33.512Z,13.20
2019-04-30T14:40:30.536Z,14.03
2019-04-30T14:45:28.994Z,17.87
2019-04-30T14:50:35.175Z,24.20
2019-04-30T14:55:42.354Z,16.07
2019-04-30T15:00:59.227Z,17.00
2019-04-30T15:05:54.936Z,12.00
2019-04-30T15:10:50.865Z,16.47
2019-04-30T15:15:46.897Z,12.73
2019-04-30T15:20:49.598Z,12.70
2019-04-30T15:25:45.501Z,15.13
2019-04-30T15:30:42.102Z,18.10
2019-04-30T15:35:38.171Z,18.80
2019-04-30T15:40:34.099Z,17.23
2019-04-30T15:45:30.230Z,18.83
2019-04-30T15:50:39.281Z,19.50
2019-04-30T15:55:35.346Z,20.30
2019-04-30T16:00:31.887Z,18.80
2019-04-30T16:05:29.730Z,21.33
2019-04-30T16:10:36.794Z,23.03
2019-04-30T16:15:32.810Z,19.47
2019-04-30T16:20:39.278Z,23.93
2019-04-30T16:25:35.724Z,21.37
2019-04-30T16:30:31.710Z,28.20
2019-04-30T16:35:29.573Z,21.77
2019-04-30T16:40:25.706Z,21.47
2019-04-30T16:45:21.746Z,19.63
2019-04-30T16:50:19.447Z,20.30
2019-04-30T16:55:16.077Z,20.87
2019-04-30T17:00:13.307Z,23.27
2019-04-30T17:05:23.267Z,18.80
2019-04-30T17:10:33.328Z,17.77
2019-04-30T17:15:31.161Z,27.30
2019-04-30T17:20:41.026Z,21.43
2019-04-30T17:25:37.083Z,17.93
2019-04-30T17:30:33.004Z,25.93
2019-04-30T17:35:29.025Z,16.43
2019-04-30T17:40:25.224Z,24.30
2019-04-30T17:45:21.423Z,18.57
2019-04-30T17:50:19.021Z,20.00
2019-04-30T17:55:15.246Z,22.47
2019-04-30T18:00:18.781Z,26.93
2019-04-30T18:05:11.744Z,19.77
2019-04-30T18:10:13.791Z,23.17
2019-04-30T18:15:15.310Z,21.90
2019-04-30T18:20:36.773Z,19.00
2019-04-30T18:25:37.275Z,22.03
2019-04-30T18:30:35.154Z,23.13
2019-04-30T18:35:31.311Z,23.73
2019-04-30T18:40:27.244Z,20.90
2019-04-30T18:45:23.174Z,26.87
2019-04-30T18:50:20.669Z,22.80
2019-04-30T18:55:16.700Z,21.33
2019-04-30T19:00:14.957Z,28.87
2019-04-30T19:05:13.752Z,24.97
2019-04-30T19:10:17.441Z,23.50
2019-04-30T19:15:18.056Z,23.07
2019-04-30T19:20:18.815Z,24.50
2019-04-30T19:25:15.087Z,24.80
2019-04-30T19:30:11.314Z,26.00
2019-04-30T19:35:09.024Z,26.90
2019-04-30T19:40:08.564Z,33.30
2019-04-30T19:45:10.071Z,25.93
2019-04-30T19:50:04.277Z,21.70
2019-04-30T19:55:00.199Z,35.40
2019-04-30T19:59:56.271Z,30.70
2019-04-30T20:04:52.201Z,28.13
2019-04-30T20:10:00.198Z,33.53
2019-04-30T20:14:46.034Z,27.93
2019-04-30T20:19:41.964Z,35.17
2019-04-30T20:24:39.410Z,28.93
2019-04-30T20:29:35.485Z,31.23
2019-04-30T20:34:31.423Z,32.23
2019-04-30T20:39:44.362Z,31.57
2019-04-30T20:44:40.304Z,32.30
2019-04-30T20:49:36.242Z,33.17
2019-04-30T20:54:32.281Z,35.80
2019-04-30T20:59:29.138Z,32.70
2019-04-30T21:04:25.282Z,43.63
2019-04-30T21:09:21.229Z,32.40
2019-04-30T21:14:19.184Z,39.00
2019-04-30T21:19:15.082Z,37.63
2019-04-30T21:24:11.010Z,40.00
2019-04-30T21:29:13.159Z,37.63
2019-04-30T21:34:15.770Z,43.13
2019-04-30T21:39:11.705Z,38.30
2019-04-30T21:44:07.651Z,41.53
2019-04-30T21:49:03.574Z,44.90
2019-04-30T21:53:59.519Z,50.17
2019-04-30T21:58:55.450Z,42.77
2019-04-30T22:03:51.578Z,39.87
2019-04-30T22:08:48.577Z,42.87
2019-04-30T22:13:44.780Z,47.17
2019-04-30T22:18:40.725Z,47.97
2019-04-30T22:23:36.650Z,52.43
2019-04-30T22:28:32.976Z,53.93
2019-04-30T22:33:29.307Z,58.00
2019-04-30T22:38:30.254Z,57.00
2019-04-30T22:43:26.299Z,50.83
2019-04-30T22:48:22.226Z,55.23
2019-04-30T22:53:18.149Z,58.57
2019-04-30T22:58:14.186Z,55.13
2019-04-30T23:03:12.227Z,57.53
2019-04-30T23:08:08.163Z,51.40
2019-04-30T23:13:04.200Z,56.27
2019-04-30T23:18:00.201Z,55.07
2019-04-30T23:22:56.135Z,68.27
2019-04-30T23:27:52.065Z,63.53
2019-04-30T23:32:47.995Z,60.20
2019-04-30T23:37:43.984Z,55.70
2019-04-30T23:42:39.910Z,64.63
2019-04-30T23:47:35.837Z,64.10
2019-04-30T23:52:31.769Z,58.50
2019-04-30T23:57:27.810Z,63.60
